createdAt,value
2019-06-08T00:01:33.272Z,55.73
2019-06-08T00:04:05.484Z,55.36
2019-06-08T00:06:37.658Z,57.70
2019-06-08T00:09:09.663Z,57.11
2019-06-08T00:11:41.785Z,57.40
2019-06-08T00:14:15.186Z,58.13
2019-06-08T00:16:47.347Z,59.72
2019-06-08T00:19:19.803Z,58.89
2019-06-08T00:21:52.003Z,57.72
2019-06-08T00:24:24.185Z,57.63
2019-06-08T00:26:56.393Z,58.94
2019-06-08T00:29:28.489Z,57.96
2019-06-08T00:32:00.646Z,58.75
2019-06-08T00:34:32.779Z,59.29
2019-06-08T00:37:04.856Z,60.58
2019-06-08T00:39:37.037Z,58.80
2019-06-08T00:42:09.220Z,59.38
2019-06-08T00:44:41.294Z,60.02
2019-06-08T00:47:13.507Z,60.34
2019-06-08T00:49:47.083Z,60.51
2019-06-08T00:52:21.088Z,61.42
2019-06-08T00:54:53.344Z,60.34
2019-06-08T00:57:26.038Z,59.89
2019-06-08T00:59:59.908Z,60.32
2019-06-08T01:02:32.010Z,61.77
2019-06-08T01:05:05.819Z,61.26
2019-06-08T01:07:37.898Z,60.25
2019-06-08T01:10:10.090Z,61.36
2019-06-08T01:12:42.995Z,60.54
2019-06-08T01:15:15.373Z,60.34
2019-06-08T01:18:01.671Z,60.55
2019-06-08T01:20:23.472Z,61.14
2019-06-08T01:22:56.062Z,60.83
2019-06-08T01:25:28.278Z,62.79
2019-06-08T01:28:00.594Z,64.65
2019-06-08T01:30:33.765Z,62.93
2019-06-08T01:33:05.904Z,63.36
2019-06-08T01:35:38.051Z,63.78
2019-06-08T01:38:10.246Z,64.91
2019-06-08T01:40:42.447Z,65.02
2019-06-08T01:43:14.691Z,66.84
2019-06-08T01:45:46.931Z,66.51
2019-06-08T01:48:20.566Z,67.94
2019-06-08T01:50:53.546Z,66.85
2019-06-08T01:53:26.832Z,63.93
2019-06-08T01:55:59.153Z,63.75
2019-06-08T01:58:31.494Z,63.76
2019-06-08T02:01:03.821Z,63.15
2019-06-08T02:03:35.915Z,64.46
2019-06-08T02:06:08.172Z,63.18
2019-06-08T02:08:40.334Z,61.80
2019-06-08T02:11:12.491Z,63.07
2019-06-08T02:13:44.682Z,62.51
2019-06-08T02:16:16.720Z,62.96
2019-06-08T02:18:51.114Z,61.70
2019-06-08T02:21:22.526Z,62.04
2019-06-08T02:23:54.688Z,62.04
2019-06-08T02:26:28.651Z,62.63
2019-06-08T02:29:00.998Z,62.07
2019-06-08T02:31:34.803Z,62.70
2019-06-08T02:34:07.172Z,62.83
2019-06-08T02:36:40.716Z,63.40
2019-06-08T02:39:13.157Z,62.91
2019-06-08T02:41:45.252Z,61.28
2019-06-08T02:44:17.496Z,62.23
2019-06-08T02:46:49.598Z,63.39
2019-06-08T02:49:21.728Z,63.25
2019-06-08T02:51:54.382Z,63.23
2019-06-08T02:54:26.491Z,62.82
2019-06-08T02:56:59.287Z,62.20
2019-06-08T02:59:31.392Z,63.19
2019-06-08T03:02:03.581Z,63.38
2019-06-08T03:04:38.828Z,63.47
2019-06-08T03:07:12.146Z,62.80
2019-06-08T03:09:44.345Z,63.07
2019-06-08T03:12:16.390Z,61.98
2019-06-08T03:14:48.577Z,62.56
2019-06-08T03:17:20.684Z,62.67
2019-06-08T03:19:52.790Z,61.39
2019-06-08T03:22:24.920Z,61.38
2019-06-08T03:24:57.095Z,62.16
2019-06-08T03:27:29.372Z,61.19
2019-06-08T03:30:16.714Z,61.52
2019-06-08T03:32:39.803Z,60.89
2019-06-08T03:35:10.834Z,60.82
2019-06-08T03:37:44.463Z,61.07
2019-06-08T03:40:17.871Z,60.90
2019-06-08T03:42:51.065Z,60.93
2019-06-08T03:45:23.767Z,61.37
2019-06-08T03:47:55.983Z,60.24
2019-06-08T03:50:28.093Z,59.48
2019-06-08T03:53:00.335Z,58.38
2019-06-08T03:55:32.462Z,58.54
2019-06-08T03:58:04.538Z,58.58
2019-06-08T04:00:38.142Z,59.32
2019-06-08T04:03:10.764Z,58.13
2019-06-08T04:05:44.871Z,56.52
2019-06-08T04:08:17.544Z,57.20
2019-06-08T04:10:50.253Z,56.18
2019-06-08T04:13:22.723Z,55.21
2019-06-08T04:15:54.765Z,55.10
2019-06-08T04:18:26.911Z,55.16
2019-06-08T04:20:58.902Z,54.10
2019-06-08T04:23:31.045Z,53.62
2019-06-08T04:26:03.250Z,53.20
2019-06-08T04:28:35.566Z,52.20
2019-06-08T04:31:07.848Z,51.94
2019-06-08T04:33:40.702Z,51.50
2019-06-08T04:36:13.833Z,51.75
